sensor_id;sensor_type;location;lat;lon;timestamp;P1;durP1;ratioP1;P2;durP2;ratioP2
8540;SDS011;4308;51.294;6.590;2023-02-18T00:00:21;12.53;;;9.90;;
8540;SDS011;4308;51.294;6.590;2023-02-18T00:02:49;13.70;;;11.27;;
8540;SDS011;4308;51.294;6.590;2023-02-18T00:05:18;15.43;;;11.33;;
8540;SDS011;4308;51.294;6.590;2023-02-18T00:07:46;12.10;;;10.50;;
8540;SDS011;4308;51.294;6.590;2023-02-18T00:10:14;13.87;;;10.90;;
8540;SDS011;4308;51.294;6.590;2023-02-18T00:12:42;14.07;;;10.63;;
8540;SDS011;4308;51.294;6.590;2023-02-18T00:15:09;15.43;;;11.20;;
8540;SDS011;4308;51.294;6.590;2023-02-18T00:17:37;15.23;;;10.80;;
8540;SDS011;4308;51.294;6.590;2023-02-18T00:20:05;16.23;;;12.03;;
8540;SDS011;4308;51.294;6.590;2023-02-18T00:22:33;13.93;;;10.70;;
8540;SDS011;4308;51.294;6.590;2023-02-18T00:25:00;14.23;;;11.27;;
8540;SDS011;4308;51.294;6.590;2023-02-18T00:27:28;13.37;;;11.13;;
8540;SDS011;4308;51.294;6.590;2023-02-18T00:29:56;15.63;;;11.23;;
8540;SDS011;4308;51.294;6.590;2023-02-18T00:32:24;17.20;;;12.33;;
8540;SDS011;4308;51.294;6.590;2023-02-18T00:34:51;19.90;;;12.10;;
8540;SDS011;4308;51.294;6.590;2023-02-18T00:37:19;15.13;;;11.40;;
8540;SDS011;4308;51.294;6.590;2023-02-18T00:39:47;15.27;;;11.27;;
8540;SDS011;4308;51.294;6.590;2023-02-18T00:42:14;13.37;;;10.93;;
8540;SDS011;4308;51.294;6.590;2023-02-18T00:44:42;13.50;;;11.10;;
8540;SDS011;4308;51.294;6.590;2023-02-18T00:47:09;16.47;;;11.87;;
8540;SDS011;4308;51.294;6.590;2023-02-18T00:49:37;15.67;;;11.87;;
8540;SDS011;4308;51.294;6.590;2023-02-18T00:52:04;14.60;;;12.00;;
8540;SDS011;4308;51.294;6.590;2023-02-18T00:54:32;14.20;;;11.67;;
8540;SDS011;4308;51.294;6.590;2023-02-18T00:57:00;14.50;;;11.80;;
8540;SDS011;4308;51.294;6.590;2023-02-18T00:59:27;13.20;;;11.03;;
8540;SDS011;4308;51.294;6.590;2023-02-18T01:01:55;16.27;;;10.93;;
8540;SDS011;4308;51.294;6.590;2023-02-18T01:04:22;15.70;;;11.63;;
8540;SDS011;4308;51.294;6.590;2023-02-18T01:06:50;13.30;;;10.60;;
8540;SDS011;4308;51.294;6.590;2023-02-18T01:09:17;14.60;;;10.43;;
8540;SDS011;4308;51.294;6.590;2023-02-18T01:11:45;11.57;;;10.13;;
8540;SDS011;4308;51.294;6.590;2023-02-18T01:14:12;12.23;;;9.50;;
8540;SDS011;4308;51.294;6.590;2023-02-18T01:16:41;12.03;;;9.13;;
8540;SDS011;4308;51.294;6.590;2023-02-18T01:19:09;13.27;;;9.13;;
8540;SDS011;4308;51.294;6.590;2023-02-18T01:21:36;12.53;;;9.43;;
8540;SDS011;4308;51.294;6.590;2023-02-18T01:24:04;11.70;;;8.63;;
8540;SDS011;4308;51.294;6.590;2023-02-18T01:26:32;12.10;;;9.30;;
8540;SDS011;4308;51.294;6.590;2023-02-18T01:28:59;14.47;;;8.90;;
8540;SDS011;4308;51.294;6.590;2023-02-18T01:31:27;11.17;;;8.23;;
8540;SDS011;4308;51.294;6.590;2023-02-18T01:33:54;11.43;;;8.47;;
8540;SDS011;4308;51.294;6.590;2023-02-18T01:36:22;13.83;;;9.40;;
8540;SDS011;4308;51.294;6.590;2023-02-18T01:38:49;10.50;;;7.67;;
8540;SDS011;4308;51.294;6.590;2023-02-18T01:41:17;11.10;;;8.60;;
8540;SDS011;4308;51.294;6.590;2023-02-18T01:43:45;8.43;;;7.50;;
8540;SDS011;4308;51.294;6.590;2023-02-18T01:46:19;9.87;;;7.40;;
8540;SDS011;4308;51.294;6.590;2023-02-18T01:48:52;10.07;;;7.70;;
8540;SDS011;4308;51.294;6.590;2023-02-18T01:53:55;10.63;;;8.10;;
8540;SDS011;4308;51.294;6.590;2023-02-18T01:56:30;10.30;;;7.47;;
8540;SDS011;4308;51.294;6.590;2023-02-18T01:59:01;9.60;;;7.00;;
8540;SDS011;4308;51.294;6.590;2023-02-18T02:01:30;8.27;;;6.57;;
8540;SDS011;4308;51.294;6.590;2023-02-18T02:03:58;9.57;;;7.17;;
8540;SDS011;4308;51.294;6.590;2023-02-18T02:06:26;12.93;;;7.57;;
8540;SDS011;4308;51.294;6.590;2023-02-18T02:08:55;9.73;;;7.50;;
8540;SDS011;4308;51.294;6.590;2023-02-18T02:11:27;9.73;;;6.80;;
8540;SDS011;4308;51.294;6.590;2023-02-18T02:19:02;10.60;;;7.20;;
8540;SDS011;4308;51.294;6.590;2023-02-18T02:24:53;8.90;;;7.07;;
8540;SDS011;4308;51.294;6.590;2023-02-18T02:32:06;10.33;;;7.00;;
8540;SDS011;4308;51.294;6.590;2023-02-18T02:45:13;10.43;;;7.20;;
8540;SDS011;4308;51.294;6.590;2023-02-18T02:47:47;10.43;;;7.43;;
8540;SDS011;4308;51.294;6.590;2023-02-18T02:50:21;9.83;;;7.57;;
8540;SDS011;4308;51.294;6.590;2023-02-18T02:52:50;11.80;;;8.17;;
8540;SDS011;4308;51.294;6.590;2023-02-18T02:55:19;13.10;;;8.93;;
8540;SDS011;4308;51.294;6.590;2023-02-18T02:57:48;12.07;;;8.30;;
8540;SDS011;4308;51.294;6.590;2023-02-18T03:00:16;14.80;;;9.23;;
8540;SDS011;4308;51.294;6.590;2023-02-18T03:03:00;13.20;;;8.60;;
8540;SDS011;4308;51.294;6.590;2023-02-18T03:10:57;15.83;;;10.37;;
8540;SDS011;4308;51.294;6.590;2023-02-18T03:15:58;15.87;;;10.73;;
8540;SDS011;4308;51.294;6.590;2023-02-18T03:23:30;15.60;;;10.13;;
8540;SDS011;4308;51.294;6.590;2023-02-18T03:25:59;19.60;;;10.67;;
8540;SDS011;4308;51.294;6.590;2023-02-18T03:28:27;15.53;;;10.27;;
8540;SDS011;4308;51.294;6.590;2023-02-18T03:31:15;16.67;;;10.77;;
8540;SDS011;4308;51.294;6.590;2023-02-18T03:33:45;17.73;;;10.60;;
8540;SDS011;4308;51.294;6.590;2023-02-18T03:36:13;17.00;;;9.73;;
8540;SDS011;4308;51.294;6.590;2023-02-18T03:38:43;17.53;;;10.37;;
8540;SDS011;4308;51.294;6.590;2023-02-18T03:41:11;15.07;;;9.33;;
8540;SDS011;4308;51.294;6.590;2023-02-18T03:43:40;14.37;;;9.07;;
8540;SDS011;4308;51.294;6.590;2023-02-18T03:46:07;15.87;;;10.17;;
8540;SDS011;4308;51.294;6.590;2023-02-18T03:48:35;16.53;;;8.87;;
8540;SDS011;4308;51.294;6.590;2023-02-18T03:51:03;12.47;;;7.83;;
8540;SDS011;4308;51.294;6.590;2023-02-18T03:53:31;18.47;;;8.97;;
8540;SDS011;4308;51.294;6.590;2023-02-18T03:55:58;12.77;;;7.50;;
8540;SDS011;4308;51.294;6.590;2023-02-18T03:58:26;12.40;;;7.50;;
8540;SDS011;4308;51.294;6.590;2023-02-18T04:00:53;14.93;;;8.10;;
8540;SDS011;4308;51.294;6.590;2023-02-18T04:03:21;10.57;;;6.47;;
8540;SDS011;4308;51.294;6.590;2023-02-18T04:05:48;11.50;;;7.00;;
8540;SDS011;4308;51.294;6.590;2023-02-18T04:08:16;10.77;;;5.93;;
8540;SDS011;4308;51.294;6.590;2023-02-18T04:10:44;12.97;;;6.43;;
8540;SDS011;4308;51.294;6.590;2023-02-18T04:13:11;10.20;;;5.87;;
8540;SDS011;4308;51.294;6.590;2023-02-18T04:15:39;9.77;;;5.30;;
8540;SDS011;4308;51.294;6.590;2023-02-18T04:18:06;6.90;;;4.33;;
8540;SDS011;4308;51.294;6.590;2023-02-18T04:20:34;6.83;;;4.43;;
8540;SDS011;4308;51.294;6.590;2023-02-18T04:23:02;7.37;;;4.27;;
8540;SDS011;4308;51.294;6.590;2023-02-18T04:25:30;5.10;;;3.47;;
8540;SDS011;4308;51.294;6.590;2023-02-18T04:27:57;4.10;;;3.03;;
8540;SDS011;4308;51.294;6.590;2023-02-18T04:30:25;4.87;;;3.07;;
8540;SDS011;4308;51.294;6.590;2023-02-18T04:32:52;3.33;;;2.60;;
8540;SDS011;4308;51.294;6.590;2023-02-18T04:35:20;2.37;;;2.00;;
8540;SDS011;4308;51.294;6.590;2023-02-18T04:37:48;2.80;;;2.17;;
8540;SDS011;4308;51.294;6.590;2023-02-18T04:40:15;3.03;;;2.10;;
8540;SDS011;4308;51.294;6.590;2023-02-18T04:42:43;2.67;;;2.10;;
8540;SDS011;4308;51.294;6.590;2023-02-18T04:45:10;1.90;;;1.70;;
8540;SDS011;4308;51.294;6.590;2023-02-18T04:47:38;1.90;;;1.70;;
8540;SDS011;4308;51.294;6.590;2023-02-18T04:50:06;2.10;;;1.90;;
8540;SDS011;4308;51.294;6.590;2023-02-18T04:52:34;2.10;;;1.90;;
8540;SDS011;4308;51.294;6.590;2023-02-18T04:55:01;2.23;;;1.90;;
8540;SDS011;4308;51.294;6.590;2023-02-18T04:57:29;3.27;;;2.03;;
8540;SDS011;4308;51.294;6.590;2023-02-18T04:59:56;1.90;;;1.70;;
8540;SDS011;4308;51.294;6.590;2023-02-18T05:02:24;3.47;;;2.03;;
8540;SDS011;4308;51.294;6.590;2023-02-18T05:04:51;2.27;;;1.90;;
8540;SDS011;4308;51.294;6.590;2023-02-18T05:07:19;1.60;;;1.47;;
8540;SDS011;4308;51.294;6.590;2023-02-18T05:09:47;2.10;;;1.73;;
8540;SDS011;4308;51.294;6.590;2023-02-18T05:12:14;2.30;;;1.77;;
8540;SDS011;4308;51.294;6.590;2023-02-18T05:14:42;2.47;;;1.90;;
8540;SDS011;4308;51.294;6.590;2023-02-18T05:17:09;2.10;;;1.90;;
8540;SDS011;4308;51.294;6.590;2023-02-18T05:19:37;3.50;;;1.90;;
8540;SDS011;4308;51.294;6.590;2023-02-18T05:22:04;2.93;;;2.27;;
8540;SDS011;4308;51.294;6.590;2023-02-18T05:24:32;1.90;;;1.77;;
8540;SDS011;4308;51.294;6.590;2023-02-18T05:26:59;2.07;;;1.87;;
8540;SDS011;4308;51.294;6.590;2023-02-18T05:29:27;2.40;;;2.10;;
8540;SDS011;4308;51.294;6.590;2023-02-18T05:31:55;2.13;;;1.93;;
8540;SDS011;4308;51.294;6.590;2023-02-18T05:34:22;2.73;;;1.73;;
8540;SDS011;4308;51.294;6.590;2023-02-18T05:36:50;3.77;;;2.03;;
8540;SDS011;4308;51.294;6.590;2023-02-18T05:39:17;2.23;;;2.00;;
8540;SDS011;4308;51.294;6.590;2023-02-18T05:41:45;2.67;;;1.70;;
8540;SDS011;4308;51.294;6.590;2023-02-18T05:44:12;2.93;;;1.77;;
8540;SDS011;4308;51.294;6.590;2023-02-18T05:46:40;2.43;;;2.00;;
8540;SDS011;4308;51.294;6.590;2023-02-18T05:49:08;2.77;;;2.20;;
8540;SDS011;4308;51.294;6.590;2023-02-18T05:51:35;1.90;;;1.63;;
8540;SDS011;4308;51.294;6.590;2023-02-18T05:54:03;1.63;;;1.50;;
8540;SDS011;4308;51.294;6.590;2023-02-18T05:56:31;3.00;;;1.93;;
8540;SDS011;4308;51.294;6.590;2023-02-18T05:58:58;3.03;;;2.17;;
8540;SDS011;4308;51.294;6.590;2023-02-18T06:01:26;2.90;;;2.10;;
8540;SDS011;4308;51.294;6.590;2023-02-18T06:03:53;3.03;;;2.10;;
8540;SDS011;4308;51.294;6.590;2023-02-18T06:06:21;2.57;;;2.17;;
8540;SDS011;4308;51.294;6.590;2023-02-18T06:08:49;3.07;;;2.63;;
8540;SDS011;4308;51.294;6.590;2023-02-18T06:11:16;2.57;;;2.10;;
8540;SDS011;4308;51.294;6.590;2023-02-18T06:13:44;3.17;;;2.57;;
8540;SDS011;4308;51.294;6.590;2023-02-18T06:16:12;2.40;;;2.17;;
8540;SDS011;4308;51.294;6.590;2023-02-18T06:18:39;4.73;;;2.57;;
8540;SDS011;4308;51.294;6.590;2023-02-18T06:21:07;3.83;;;2.73;;
8540;SDS011;4308;51.294;6.590;2023-02-18T06:23:35;2.53;;;2.30;;
8540;SDS011;4308;51.294;6.590;2023-02-18T06:26:04;3.87;;;2.90;;
8540;SDS011;4308;51.294;6.590;2023-02-18T06:28:32;4.40;;;2.50;;
8540;SDS011;4308;51.294;6.590;2023-02-18T06:31:00;2.57;;;2.37;;
8540;SDS011;4308;51.294;6.590;2023-02-18T06:33:28;2.97;;;2.40;;
8540;SDS011;4308;51.294;6.590;2023-02-18T06:35:59;3.30;;;2.47;;
8540;SDS011;4308;51.294;6.590;2023-02-18T06:38:27;2.70;;;2.50;;
8540;SDS011;4308;51.294;6.590;2023-02-18T06:40:55;3.63;;;2.57;;
8540;SDS011;4308;51.294;6.590;2023-02-18T06:43:23;2.97;;;2.30;;
8540;SDS011;4308;51.294;6.590;2023-02-18T06:45:50;3.77;;;2.23;;
8540;SDS011;4308;51.294;6.590;2023-02-18T06:48:18;3.00;;;2.10;;
8540;SDS011;4308;51.294;6.590;2023-02-18T06:50:46;2.50;;;2.10;;
8540;SDS011;4308;51.294;6.590;2023-02-18T06:53:14;2.73;;;1.80;;
8540;SDS011;4308;51.294;6.590;2023-02-18T06:55:42;2.67;;;2.03;;
8540;SDS011;4308;51.294;6.590;2023-02-18T06:58:10;3.40;;;2.00;;
8540;SDS011;4308;51.294;6.590;2023-02-18T07:00:38;2.70;;;1.73;;
8540;SDS011;4308;51.294;6.590;2023-02-18T07:03:06;2.83;;;2.00;;
8540;SDS011;4308;51.294;6.590;2023-02-18T07:05:34;1.97;;;1.50;;
8540;SDS011;4308;51.294;6.590;2023-02-18T07:08:01;1.50;;;1.40;;
8540;SDS011;4308;51.294;6.590;2023-02-18T07:10:29;1.93;;;1.67;;
8540;SDS011;4308;51.294;6.590;2023-02-18T07:12:57;1.97;;;1.60;;
8540;SDS011;4308;51.294;6.590;2023-02-18T07:15:24;1.77;;;1.67;;
8540;SDS011;4308;51.294;6.590;2023-02-18T07:17:52;1.50;;;1.40;;
8540;SDS011;4308;51.294;6.590;2023-02-18T07:20:20;1.80;;;1.20;;
8540;SDS011;4308;51.294;6.590;2023-02-18T07:22:48;1.53;;;1.30;;
8540;SDS011;4308;51.294;6.590;2023-02-18T07:25:16;1.27;;;1.17;;
8540;SDS011;4308;51.294;6.590;2023-02-18T07:27:44;1.50;;;1.40;;
8540;SDS011;4308;51.294;6.590;2023-02-18T07:30:12;1.60;;;1.40;;
8540;SDS011;4308;51.294;6.590;2023-02-18T07:32:43;1.93;;;1.40;;
8540;SDS011;4308;51.294;6.590;2023-02-18T07:35:12;1.80;;;1.37;;
8540;SDS011;4308;51.294;6.590;2023-02-18T07:37:43;2.40;;;1.33;;
8540;SDS011;4308;51.294;6.590;2023-02-18T07:40:15;2.50;;;1.40;;
8540;SDS011;4308;51.294;6.590;2023-02-18T07:42:44;2.50;;;1.77;;
8540;SDS011;4308;51.294;6.590;2023-02-18T07:45:11;1.70;;;1.60;;
8540;SDS011;4308;51.294;6.590;2023-02-18T07:47:39;1.90;;;1.63;;
8540;SDS011;4308;51.294;6.590;2023-02-18T07:50:07;1.70;;;1.40;;
8540;SDS011;4308;51.294;6.590;2023-02-18T07:52:35;3.00;;;1.63;;
8540;SDS011;4308;51.294;6.590;2023-02-18T07:55:02;2.43;;;1.83;;
8540;SDS011;4308;51.294;6.590;2023-02-18T07:57:30;2.90;;;1.97;;
8540;SDS011;4308;51.294;6.590;2023-02-18T07:59:57;2.83;;;2.17;;
8540;SDS011;4308;51.294;6.590;2023-02-18T08:02:25;1.67;;;1.57;;
8540;SDS011;4308;51.294;6.590;2023-02-18T08:04:53;3.30;;;1.60;;
8540;SDS011;4308;51.294;6.590;2023-02-18T08:07:20;4.63;;;1.60;;
8540;SDS011;4308;51.294;6.590;2023-02-18T08:09:49;3.43;;;2.00;;
8540;SDS011;4308;51.294;6.590;2023-02-18T08:12:16;3.27;;;1.80;;
8540;SDS011;4308;51.294;6.590;2023-02-18T08:14:44;5.70;;;2.10;;
8540;SDS011;4308;51.294;6.590;2023-02-18T08:17:12;6.87;;;2.73;;
8540;SDS011;4308;51.294;6.590;2023-02-18T08:19:39;3.63;;;1.87;;
8540;SDS011;4308;51.294;6.590;2023-02-18T08:22:07;2.83;;;2.13;;
8540;SDS011;4308;51.294;6.590;2023-02-18T08:24:34;2.63;;;1.90;;
8540;SDS011;4308;51.294;6.590;2023-02-18T08:27:02;7.80;;;2.73;;
8540;SDS011;4308;51.294;6.590;2023-02-18T08:29:30;4.90;;;1.90;;
8540;SDS011;4308;51.294;6.590;2023-02-18T08:31:57;5.80;;;2.70;;
8540;SDS011;4308;51.294;6.590;2023-02-18T08:34:25;2.87;;;1.80;;
8540;SDS011;4308;51.294;6.590;2023-02-18T08:36:52;6.80;;;2.57;;
8540;SDS011;4308;51.294;6.590;2023-02-18T08:39:20;5.03;;;1.97;;
8540;SDS011;4308;51.294;6.590;2023-02-18T08:41:47;8.60;;;2.33;;
8540;SDS011;4308;51.294;6.590;2023-02-18T08:44:15;4.27;;;1.97;;
8540;SDS011;4308;51.294;6.590;2023-02-18T08:46:42;8.07;;;2.47;;
8540;SDS011;4308;51.294;6.590;2023-02-18T08:49:10;9.53;;;2.60;;
8540;SDS011;4308;51.294;6.590;2023-02-18T08:51:38;5.93;;;2.27;;
8540;SDS011;4308;51.294;6.590;2023-02-18T08:54:05;8.87;;;2.50;;
8540;SDS011;4308;51.294;6.590;2023-02-18T08:56:33;7.97;;;2.70;;
8540;SDS011;4308;51.294;6.590;2023-02-18T08:59:00;5.63;;;2.30;;
8540;SDS011;4308;51.294;6.590;2023-02-18T09:01:28;4.73;;;2.23;;
8540;SDS011;4308;51.294;6.590;2023-02-18T09:03:56;9.97;;;2.20;;
8540;SDS011;4308;51.294;6.590;2023-02-18T09:06:23;4.77;;;2.10;;
8540;SDS011;4308;51.294;6.590;2023-02-18T09:08:51;8.17;;;3.00;;
8540;SDS011;4308;51.294;6.590;2023-02-18T09:11:19;8.33;;;2.40;;
8540;SDS011;4308;51.294;6.590;2023-02-18T09:13:46;7.97;;;2.53;;
8540;SDS011;4308;51.294;6.590;2023-02-18T09:16:15;6.77;;;2.43;;
8540;SDS011;4308;51.294;6.590;2023-02-18T09:18:43;7.57;;;2.17;;
8540;SDS011;4308;51.294;6.590;2023-02-18T09:21:12;6.97;;;2.67;;
8540;SDS011;4308;51.294;6.590;2023-02-18T09:23:40;6.50;;;2.30;;
8540;SDS011;4308;51.294;6.590;2023-02-18T09:26:09;6.33;;;2.10;;
8540;SDS011;4308;51.294;6.590;2023-02-18T09:28:37;6.70;;;2.63;;
8540;SDS011;4308;51.294;6.590;2023-02-18T09:31:05;12.53;;;3.00;;
8540;SDS011;4308;51.294;6.590;2023-02-18T09:33:40;8.70;;;3.03;;
8540;SDS011;4308;51.294;6.590;2023-02-18T09:36:10;8.60;;;2.43;;
8540;SDS011;4308;51.294;6.590;2023-02-18T09:38:37;7.83;;;2.90;;
8540;SDS011;4308;51.294;6.590;2023-02-18T09:41:06;7.10;;;2.90;;
8540;SDS011;4308;51.294;6.590;2023-02-18T09:43:37;10.83;;;2.67;;
8540;SDS011;4308;51.294;6.590;2023-02-18T09:46:09;7.57;;;2.20;;
8540;SDS011;4308;51.294;6.590;2023-02-18T09:48:40;9.57;;;2.33;;
8540;SDS011;4308;51.294;6.590;2023-02-18T09:51:10;11.13;;;2.50;;
8540;SDS011;4308;51.294;6.590;2023-02-18T09:53:39;7.03;;;2.70;;
8540;SDS011;4308;51.294;6.590;2023-02-18T09:56:07;7.77;;;2.40;;
8540;SDS011;4308;51.294;6.590;2023-02-18T09:58:37;8.20;;;2.70;;
8540;SDS011;4308;51.294;6.590;2023-02-18T10:01:06;10.90;;;2.53;;
8540;SDS011;4308;51.294;6.590;2023-02-18T10:03:37;7.33;;;2.90;;
8540;SDS011;4308;51.294;6.590;2023-02-18T10:06:07;13.77;;;4.10;;
8540;SDS011;4308;51.294;6.590;2023-02-18T10:08:38;10.53;;;2.63;;
8540;SDS011;4308;51.294;6.590;2023-02-18T10:11:10;7.50;;;1.90;;
8540;SDS011;4308;51.294;6.590;2023-02-18T10:13:39;10.90;;;2.50;;
8540;SDS011;4308;51.294;6.590;2023-02-18T10:16:07;9.37;;;2.00;;
8540;SDS011;4308;51.294;6.590;2023-02-18T10:18:40;11.17;;;2.83;;
8540;SDS011;4308;51.294;6.590;2023-02-18T10:21:09;6.57;;;3.00;;
8540;SDS011;4308;51.294;6.590;2023-02-18T10:23:39;7.67;;;2.70;;
8540;SDS011;4308;51.294;6.590;2023-02-18T10:26:11;6.73;;;2.20;;
8540;SDS011;4308;51.294;6.590;2023-02-18T10:28:40;6.13;;;2.40;;
8540;SDS011;4308;51.294;6.590;2023-02-18T10:31:08;10.70;;;3.20;;
8540;SDS011;4308;51.294;6.590;2023-02-18T10:33:42;10.37;;;2.60;;
8540;SDS011;4308;51.294;6.590;2023-02-18T10:41:33;8.30;;;2.50;;
8540;SDS011;4308;51.294;6.590;2023-02-18T10:52:15;10.03;;;2.87;;
8540;SDS011;4308;51.294;6.590;2023-02-18T10:55:02;8.63;;;2.50;;
8540;SDS011;4308;51.294;6.590;2023-02-18T10:57:31;7.90;;;2.70;;
8540;SDS011;4308;51.294;6.590;2023-02-18T11:00:18;9.13;;;2.27;;
8540;SDS011;4308;51.294;6.590;2023-02-18T11:02:46;11.53;;;2.77;;
8540;SDS011;4308;51.294;6.590;2023-02-18T11:05:27;5.37;;;2.47;;
8540;SDS011;4308;51.294;6.590;2023-02-18T11:07:55;11.03;;;2.80;;
8540;SDS011;4308;51.294;6.590;2023-02-18T11:10:25;9.37;;;3.20;;
8540;SDS011;4308;51.294;6.590;2023-02-18T11:12:56;9.20;;;2.53;;
8540;SDS011;4308;51.294;6.590;2023-02-18T11:15:25;7.07;;;3.00;;
8540;SDS011;4308;51.294;6.590;2023-02-18T11:17:53;13.20;;;3.67;;
8540;SDS011;4308;51.294;6.590;2023-02-18T11:22:56;8.83;;;2.90;;
8540;SDS011;4308;51.294;6.590;2023-02-18T11:25:24;7.67;;;2.80;;
8540;SDS011;4308;51.294;6.590;2023-02-18T11:27:56;8.03;;;2.87;;
8540;SDS011;4308;51.294;6.590;2023-02-18T11:30:35;5.77;;;3.00;;
8540;SDS011;4308;51.294;6.590;2023-02-18T11:33:14;7.60;;;3.37;;
8540;SDS011;4308;51.294;6.590;2023-02-18T11:35:48;5.97;;;2.93;;
8540;SDS011;4308;51.294;6.590;2023-02-18T11:38:22;8.60;;;3.57;;
8540;SDS011;4308;51.294;6.590;2023-02-18T11:40:57;10.93;;;2.77;;
8540;SDS011;4308;51.294;6.590;2023-02-18T11:43:28;7.00;;;2.93;;
8540;SDS011;4308;51.294;6.590;2023-02-18T11:48:38;8.10;;;2.93;;
8540;SDS011;4308;51.294;6.590;2023-02-18T11:51:20;9.07;;;3.50;;
8540;SDS011;4308;51.294;6.590;2023-02-18T11:54:00;6.30;;;3.13;;
8540;SDS011;4308;51.294;6.590;2023-02-18T11:56:30;6.47;;;3.40;;
8540;SDS011;4308;51.294;6.590;2023-02-18T11:58:59;6.47;;;3.10;;
8540;SDS011;4308;51.294;6.590;2023-02-18T12:01:40;9.80;;;3.00;;
8540;SDS011;4308;51.294;6.590;2023-02-18T12:04:13;9.33;;;2.83;;
8540;SDS011;4308;51.294;6.590;2023-02-18T12:06:53;9.63;;;3.23;;
8540;SDS011;4308;51.294;6.590;2023-02-18T12:09:26;5.90;;;3.47;;
8540;SDS011;4308;51.294;6.590;2023-02-18T12:11:56;4.83;;;3.10;;
8540;SDS011;4308;51.294;6.590;2023-02-18T12:14:25;8.27;;;3.47;;
8540;SDS011;4308;51.294;6.590;2023-02-18T12:19:36;7.67;;;3.23;;
8540;SDS011;4308;51.294;6.590;2023-02-18T12:35:11;6.87;;;3.13;;
8540;SDS011;4308;51.294;6.590;2023-02-18T12:37:57;5.87;;;2.87;;
8540;SDS011;4308;51.294;6.590;2023-02-18T12:45:47;4.77;;;2.90;;
8540;SDS011;4308;51.294;6.590;2023-02-18T12:53:43;7.53;;;2.97;;
8540;SDS011;4308;51.294;6.590;2023-02-18T12:59:03;3.93;;;3.20;;
8540;SDS011;4308;51.294;6.590;2023-02-18T13:07:00;9.57;;;4.50;;
8540;SDS011;4308;51.294;6.590;2023-02-18T13:13:03;5.37;;;3.77;;
8540;SDS011;4308;51.294;6.590;2023-02-18T13:15:24;6.87;;;3.57;;
8540;SDS011;4308;51.294;6.590;2023-02-18T13:17:56;5.97;;;3.53;;
8540;SDS011;4308;51.294;6.590;2023-02-18T13:20:28;5.37;;;3.23;;
8540;SDS011;4308;51.294;6.590;2023-02-18T13:22:59;7.07;;;4.07;;
8540;SDS011;4308;51.294;6.590;2023-02-18T13:25:28;6.33;;;3.93;;
8540;SDS011;4308;51.294;6.590;2023-02-18T13:28:37;6.90;;;3.90;;
8540;SDS011;4308;51.294;6.590;2023-02-18T13:33:26;5.13;;;4.00;;
8540;SDS011;4308;51.294;6.590;2023-02-18T13:36:06;5.87;;;3.70;;
8540;SDS011;4308;51.294;6.590;2023-02-18T13:41:22;8.70;;;3.80;;
8540;SDS011;4308;51.294;6.590;2023-02-18T13:43:52;7.53;;;4.30;;
8540;SDS011;4308;51.294;6.590;2023-02-18T13:46:20;6.83;;;4.53;;
8540;SDS011;4308;51.294;6.590;2023-02-18T13:51:40;6.90;;;4.17;;
8540;SDS011;4308;51.294;6.590;2023-02-18T13:56:41;9.70;;;4.60;;
8540;SDS011;4308;51.294;6.590;2023-02-18T13:59:10;7.50;;;4.80;;
8540;SDS011;4308;51.294;6.590;2023-02-18T14:01:43;9.57;;;5.40;;
8540;SDS011;4308;51.294;6.590;2023-02-18T14:09:44;11.13;;;5.67;;
8540;SDS011;4308;51.294;6.590;2023-02-18T14:14:58;12.17;;;6.20;;
8540;SDS011;4308;51.294;6.590;2023-02-18T14:17:31;12.50;;;6.17;;
8540;SDS011;4308;51.294;6.590;2023-02-18T14:27:33;9.40;;;5.83;;
8540;SDS011;4308;51.294;6.590;2023-02-18T14:30:17;9.53;;;6.00;;
8540;SDS011;4308;51.294;6.590;2023-02-18T14:32:46;9.90;;;6.20;;
8540;SDS011;4308;51.294;6.590;2023-02-18T14:45:34;10.60;;;5.67;;
8540;SDS011;4308;51.294;6.590;2023-02-18T14:50:40;11.20;;;6.87;;
8540;SDS011;4308;51.294;6.590;2023-02-18T14:53:12;9.90;;;5.73;;
8540;SDS011;4308;51.294;6.590;2023-02-18T14:55:44;11.00;;;5.60;;
8540;SDS011;4308;51.294;6.590;2023-02-18T14:58:18;11.67;;;5.73;;
8540;SDS011;4308;51.294;6.590;2023-02-18T15:00:48;9.27;;;5.40;;
8540;SDS011;4308;51.294;6.590;2023-02-18T15:03:17;7.20;;;5.00;;
8540;SDS011;4308;51.294;6.590;2023-02-18T15:05:45;8.40;;;5.20;;
8540;SDS011;4308;51.294;6.590;2023-02-18T15:08:14;5.37;;;4.47;;
8540;SDS011;4308;51.294;6.590;2023-02-18T15:10:43;8.30;;;5.27;;
8540;SDS011;4308;51.294;6.590;2023-02-18T15:13:33;6.87;;;4.70;;
8540;SDS011;4308;51.294;6.590;2023-02-18T15:16:00;8.60;;;5.00;;
8540;SDS011;4308;51.294;6.590;2023-02-18T15:18:33;6.33;;;4.73;;
8540;SDS011;4308;51.294;6.590;2023-02-18T15:21:03;7.70;;;5.07;;
8540;SDS011;4308;51.294;6.590;2023-02-18T15:23:35;7.60;;;5.30;;
8540;SDS011;4308;51.294;6.590;2023-02-18T15:26:03;9.37;;;5.17;;
8540;SDS011;4308;51.294;6.590;2023-02-18T15:28:32;7.27;;;4.67;;
8540;SDS011;4308;51.294;6.590;2023-02-18T15:31:00;8.03;;;5.30;;
8540;SDS011;4308;51.294;6.590;2023-02-18T15:33:29;10.50;;;5.40;;
8540;SDS011;4308;51.294;6.590;2023-02-18T15:36:04;12.93;;;5.73;;
8540;SDS011;4308;51.294;6.590;2023-02-18T15:38:32;9.07;;;5.50;;
8540;SDS011;4308;51.294;6.590;2023-02-18T15:40:59;11.73;;;6.80;;
8540;SDS011;4308;51.294;6.590;2023-02-18T15:43:27;7.17;;;6.03;;
8540;SDS011;4308;51.294;6.590;2023-02-18T15:45:55;7.90;;;5.60;;
8540;SDS011;4308;51.294;6.590;2023-02-18T15:48:28;11.03;;;5.03;;
8540;SDS011;4308;51.294;6.590;2023-02-18T15:51:03;8.70;;;5.50;;
8540;SDS011;4308;51.294;6.590;2023-02-18T15:53:44;9.93;;;5.57;;
8540;SDS011;4308;51.294;6.590;2023-02-18T15:56:17;8.73;;;5.53;;
8540;SDS011;4308;51.294;6.590;2023-02-18T15:58:46;12.30;;;5.63;;
8540;SDS011;4308;51.294;6.590;2023-02-18T16:01:27;7.73;;;5.80;;
8540;SDS011;4308;51.294;6.590;2023-02-18T16:03:55;9.93;;;5.47;;
8540;SDS011;4308;51.294;6.590;2023-02-18T16:06:29;10.97;;;5.87;;
8540;SDS011;4308;51.294;6.590;2023-02-18T16:08:59;9.60;;;5.43;;
8540;SDS011;4308;51.294;6.590;2023-02-18T16:11:32;8.63;;;5.70;;
8540;SDS011;4308;51.294;6.590;2023-02-18T16:14:00;6.40;;;4.93;;
8540;SDS011;4308;51.294;6.590;2023-02-18T16:16:29;8.40;;;4.90;;
8540;SDS011;4308;51.294;6.590;2023-02-18T16:21:43;9.63;;;6.00;;
8540;SDS011;4308;51.294;6.590;2023-02-18T16:26:52;9.63;;;5.50;;
8540;SDS011;4308;51.294;6.590;2023-02-18T16:29:33;8.20;;;4.90;;
8540;SDS011;4308;51.294;6.590;2023-02-18T16:32:01;7.67;;;4.80;;
8540;SDS011;4308;51.294;6.590;2023-02-18T16:34:29;6.80;;;4.83;;
8540;SDS011;4308;51.294;6.590;2023-02-18T16:36:57;7.40;;;4.80;;
8540;SDS011;4308;51.294;6.590;2023-02-18T16:39:32;7.63;;;4.77;;
8540;SDS011;4308;51.294;6.590;2023-02-18T16:42:00;12.23;;;5.00;;
8540;SDS011;4308;51.294;6.590;2023-02-18T16:44:28;8.37;;;5.00;;
8540;SDS011;4308;51.294;6.590;2023-02-18T16:46:58;5.90;;;4.17;;
8540;SDS011;4308;51.294;6.590;2023-02-18T16:49:26;6.97;;;4.90;;
8540;SDS011;4308;51.294;6.590;2023-02-18T16:51:54;9.70;;;4.87;;
8540;SDS011;4308;51.294;6.590;2023-02-18T16:54:22;7.13;;;4.70;;
8540;SDS011;4308;51.294;6.590;2023-02-18T16:56:50;8.10;;;4.90;;
8540;SDS011;4308;51.294;6.590;2023-02-18T16:59:17;9.40;;;4.90;;
8540;SDS011;4308;51.294;6.590;2023-02-18T17:01:45;8.67;;;5.10;;
8540;SDS011;4308;51.294;6.590;2023-02-18T17:04:13;9.73;;;4.77;;
8540;SDS011;4308;51.294;6.590;2023-02-18T17:06:41;11.27;;;5.93;;
8540;SDS011;4308;51.294;6.590;2023-02-18T17:09:16;9.57;;;5.43;;
8540;SDS011;4308;51.294;6.590;2023-02-18T17:11:44;10.43;;;5.30;;
8540;SDS011;4308;51.294;6.590;2023-02-18T17:14:12;9.13;;;4.97;;
8540;SDS011;4308;51.294;6.590;2023-02-18T17:16:40;11.17;;;5.43;;
8540;SDS011;4308;51.294;6.590;2023-02-18T17:19:08;10.90;;;5.23;;
8540;SDS011;4308;51.294;6.590;2023-02-18T17:21:35;13.83;;;5.73;;
8540;SDS011;4308;51.294;6.590;2023-02-18T17:24:03;8.80;;;5.17;;
8540;SDS011;4308;51.294;6.590;2023-02-18T17:26:31;12.43;;;5.37;;
8540;SDS011;4308;51.294;6.590;2023-02-18T17:28:58;8.03;;;4.80;;
8540;SDS011;4308;51.294;6.590;2023-02-18T17:31:27;7.57;;;4.93;;
8540;SDS011;4308;51.294;6.590;2023-02-18T17:33:56;9.57;;;4.57;;
8540;SDS011;4308;51.294;6.590;2023-02-18T17:36:25;11.23;;;4.67;;
8540;SDS011;4308;51.294;6.590;2023-02-18T17:38:52;11.13;;;5.40;;
8540;SDS011;4308;51.294;6.590;2023-02-18T17:41:20;6.93;;;4.83;;
8540;SDS011;4308;51.294;6.590;2023-02-18T17:43:48;7.97;;;4.50;;